sensor_id;sensor_type;location;lat;lon;timestamp;noise_LAeq;noise_LA_min;noise_LA_max;noise_LA01;noise_LA95
69668;Laerm;66534;52.370;4.832;2023-07-31T00:24:07;48.00;43.23;71.34;;
69668;Laerm;66534;52.370;4.832;2023-07-31T00:25:07;47.04;43.63;53.33;;
69668;Laerm;66534;52.370;4.832;2023-07-31T00:25:38;47.11;43.93;59.90;;
69668;Laerm;66534;52.370;4.832;2023-07-31T00:26:08;46.09;42.87;64.35;;
69668;Laerm;66534;52.370;4.832;2023-07-31T00:31:16;47.03;43.58;66.57;;
69668;Laerm;66534;52.370;4.832;2023-07-31T00:31:47;46.00;44.09;53.39;;
69668;Laerm;66534;52.370;4.832;2023-07-31T00:32:17;47.67;44.82;69.24;;
69668;Laerm;66534;52.370;4.832;2023-07-31T00:32:48;46.77;45.03;54.58;;
69668;Laerm;66534;52.370;4.832;2023-07-31T00:33:18;48.13;45.55;64.31;;
69668;Laerm;66534;52.370;4.832;2023-07-31T00:33:48;47.80;45.44;64.97;;
69668;Laerm;66534;52.370;4.832;2023-07-31T00:34:19;48.96;45.65;65.51;;
69668;Laerm;66534;52.370;4.832;2023-07-31T00:35:20;49.60;47.32;62.58;;
69668;Laerm;66534;52.370;4.832;2023-07-31T00:36:51;50.69;46.76;75.74;;
69668;Laerm;66534;52.370;4.832;2023-07-31T00:37:21;50.92;48.78;65.72;;
69668;Laerm;66534;52.370;4.832;2023-07-31T00:37:52;52.21;49.47;68.55;;
69668;Laerm;66534;52.370;4.832;2023-07-31T00:38:22;54.00;50.61;59.87;;
69668;Laerm;66534;52.370;4.832;2023-07-31T00:38:52;53.40;50.81;59.01;;
69668;Laerm;66534;52.370;4.832;2023-07-31T00:39:23;54.24;51.43;62.09;;
69668;Laerm;66534;52.370;4.832;2023-07-31T00:39:53;53.88;50.91;71.29;;
69668;Laerm;66534;52.370;4.832;2023-07-31T00:40:24;56.36;52.27;70.46;;
69668;Laerm;66534;52.370;4.832;2023-07-31T00:40:54;57.79;54.14;72.75;;
69668;Laerm;66534;52.370;4.832;2023-07-31T00:41:24;61.78;56.96;78.35;;
69668;Laerm;66534;52.370;4.832;2023-07-31T00:41:55;59.70;54.82;74.92;;
69668;Laerm;66534;52.370;4.832;2023-07-31T00:42:25;56.62;52.39;76.95;;
69668;Laerm;66534;52.370;4.832;2023-07-31T00:42:55;54.91;51.76;68.23;;
69668;Laerm;66534;52.370;4.832;2023-07-31T00:43:26;58.68;52.83;83.51;;
69668;Laerm;66534;52.370;4.832;2023-07-31T00:43:56;57.02;52.08;80.24;;
69668;Laerm;66534;52.370;4.832;2023-07-31T00:44:27;53.53;50.60;67.79;;
69668;Laerm;66534;52.370;4.832;2023-07-31T00:44:57;54.25;51.12;74.33;;
69668;Laerm;66534;52.370;4.832;2023-07-31T00:45:28;53.23;50.26;64.22;;
69668;Laerm;66534;52.370;4.832;2023-07-31T00:45:59;59.55;53.01;77.01;;
69668;Laerm;66534;52.370;4.832;2023-07-31T00:46:29;60.95;56.47;78.75;;
69668;Laerm;66534;52.370;4.832;2023-07-31T00:46:59;60.61;55.03;78.90;;
69668;Laerm;66534;52.370;4.832;2023-07-31T00:47:30;58.27;52.12;79.19;;
69668;Laerm;66534;52.370;4.832;2023-07-31T00:48:01;54.57;50.55;72.35;;
69668;Laerm;66534;52.370;4.832;2023-07-31T00:48:32;53.49;49.96;76.18;;
69668;Laerm;66534;52.370;4.832;2023-07-31T00:49:04;53.30;50.03;71.93;;
69668;Laerm;66534;52.370;4.832;2023-07-31T00:49:35;54.16;51.57;64.09;;
69668;Laerm;66534;52.370;4.832;2023-07-31T00:50:07;55.85;53.01;64.93;;
69668;Laerm;66534;52.370;4.832;2023-07-31T00:50:37;56.59;51.23;77.94;;
69668;Laerm;66534;52.370;4.832;2023-07-31T00:51:09;52.61;49.83;69.42;;
69668;Laerm;66534;52.370;4.832;2023-07-31T00:51:39;52.73;49.44;75.24;;
69668;Laerm;66534;52.370;4.832;2023-07-31T00:52:10;53.69;48.61;77.43;;
69668;Laerm;66534;52.370;4.832;2023-07-31T00:52:40;51.33;48.26;68.70;;
69668;Laerm;66534;52.370;4.832;2023-07-31T00:53:10;51.52;47.78;65.12;;
69668;Laerm;66534;52.370;4.832;2023-07-31T00:53:42;52.92;47.74;76.19;;
69668;Laerm;66534;52.370;4.832;2023-07-31T00:54:13;53.01;49.71;65.61;;
69668;Laerm;66534;52.370;4.832;2023-07-31T00:54:43;51.69;48.82;61.46;;
69668;Laerm;66534;52.370;4.832;2023-07-31T00:55:14;54.23;51.63;61.43;;
69668;Laerm;66534;52.370;4.832;2023-07-31T00:55:45;55.46;51.22;71.22;;
69668;Laerm;66534;52.370;4.832;2023-07-31T00:56:15;57.15;53.76;62.54;;
69668;Laerm;66534;52.370;4.832;2023-07-31T00:56:46;57.07;52.33;74.83;;
69668;Laerm;66534;52.370;4.832;2023-07-31T00:57:18;54.63;51.43;62.66;;
69668;Laerm;66534;52.370;4.832;2023-07-31T00:57:49;54.45;51.12;71.44;;
69668;Laerm;66534;52.370;4.832;2023-07-31T00:58:21;54.41;49.69;58.33;;
69668;Laerm;66534;52.370;4.832;2023-07-31T00:58:52;51.89;49.03;61.24;;
69668;Laerm;66534;52.370;4.832;2023-07-31T00:59:22;52.15;48.20;60.89;;
69668;Laerm;66534;52.370;4.832;2023-07-31T00:59:53;52.52;49.52;63.33;;
69668;Laerm;66534;52.370;4.832;2023-07-31T01:00:23;55.38;52.10;59.21;;
69668;Laerm;66534;52.370;4.832;2023-07-31T01:00:53;54.08;49.35;61.00;;
69668;Laerm;66534;52.370;4.832;2023-07-31T01:01:24;51.85;48.52;75.14;;
69668;Laerm;66534;52.370;4.832;2023-07-31T01:01:54;56.01;51.34;69.97;;
69668;Laerm;66534;52.370;4.832;2023-07-31T01:02:25;55.62;51.50;68.39;;
69668;Laerm;66534;52.370;4.832;2023-07-31T01:02:56;51.26;48.71;66.62;;
69668;Laerm;66534;52.370;4.832;2023-07-31T01:03:26;53.34;49.20;62.16;;
69668;Laerm;66534;52.370;4.832;2023-07-31T01:03:57;50.84;47.64;61.42;;
69668;Laerm;66534;52.370;4.832;2023-07-31T01:04:28;51.25;46.97;61.86;;
69668;Laerm;66534;52.370;4.832;2023-07-31T01:04:59;55.15;48.02;82.15;;
69668;Laerm;66534;52.370;4.832;2023-07-31T01:05:45;53.89;47.03;81.32;;
69668;Laerm;66534;52.370;4.832;2023-07-31T01:06:40;53.63;49.21;73.09;;
69668;Laerm;66534;52.370;4.832;2023-07-31T01:07:25;52.00;46.50;72.69;;
69668;Laerm;66534;52.370;4.832;2023-07-31T01:08:41;52.94;46.52;78.97;;
69668;Laerm;66534;52.370;4.832;2023-07-31T01:10:13;45.95;43.88;55.10;;
69668;Laerm;66534;52.370;4.832;2023-07-31T01:10:53;50.19;44.63;57.24;;
69668;Laerm;66534;52.370;4.832;2023-07-31T01:11:28;50.30;46.69;54.74;;
69668;Laerm;66534;52.370;4.832;2023-07-31T01:12:32;45.91;43.62;52.48;;
69668;Laerm;66534;52.370;4.832;2023-07-31T01:13:05;45.98;43.49;54.13;;
69668;Laerm;66534;52.370;4.832;2023-07-31T01:13:36;46.88;43.62;62.99;;
69668;Laerm;66534;52.370;4.832;2023-07-31T01:14:06;51.12;45.52;61.03;;
69668;Laerm;66534;52.370;4.832;2023-07-31T01:14:37;49.74;46.82;56.43;;
69668;Laerm;66534;52.370;4.832;2023-07-31T01:15:08;47.50;45.14;53.95;;
69668;Laerm;66534;52.370;4.832;2023-07-31T01:16:12;50.08;44.68;65.87;;
69668;Laerm;66534;52.370;4.832;2023-07-31T01:16:42;52.53;49.05;70.19;;
69668;Laerm;66534;52.370;4.832;2023-07-31T01:17:13;56.57;48.85;82.52;;
69668;Laerm;66534;52.370;4.832;2023-07-31T01:17:43;55.12;48.42;78.73;;
69668;Laerm;66534;52.370;4.832;2023-07-31T01:18:14;50.70;45.49;68.63;;
69668;Laerm;66534;52.370;4.832;2023-07-31T01:18:44;50.37;45.74;67.76;;
69668;Laerm;66534;52.370;4.832;2023-07-31T01:19:18;54.17;45.27;77.88;;
69668;Laerm;66534;52.370;4.832;2023-07-31T01:19:52;52.76;48.11;72.32;;
69668;Laerm;66534;52.370;4.832;2023-07-31T01:20:24;49.39;45.29;68.62;;
69668;Laerm;66534;52.370;4.832;2023-07-31T01:26:18;49.85;46.23;63.86;;
69668;Laerm;66534;52.370;4.832;2023-07-31T01:27:30;50.96;44.36;57.56;;
69668;Laerm;66534;52.370;4.832;2023-07-31T01:29:02;49.17;44.77;56.58;;
69668;Laerm;66534;52.370;4.832;2023-07-31T01:30:16;56.02;49.32;62.99;;
69668;Laerm;66534;52.370;4.832;2023-07-31T01:31:24;51.98;48.76;58.98;;
69668;Laerm;66534;52.370;4.832;2023-07-31T01:34:33;56.93;53.02;64.96;;
69668;Laerm;66534;52.370;4.832;2023-07-31T01:35:06;52.49;48.86;66.59;;
69668;Laerm;66534;52.370;4.832;2023-07-31T01:35:37;51.97;47.95;76.50;;
69668;Laerm;66534;52.370;4.832;2023-07-31T01:36:08;51.72;47.78;56.87;;
69668;Laerm;66534;52.370;4.832;2023-07-31T01:36:38;52.20;49.59;58.93;;
69668;Laerm;66534;52.370;4.832;2023-07-31T01:37:09;51.06;46.97;74.53;;
69668;Laerm;66534;52.370;4.832;2023-07-31T01:37:39;53.24;47.72;59.90;;
69668;Laerm;66534;52.370;4.832;2023-07-31T01:38:10;53.64;50.03;74.20;;
69668;Laerm;66534;52.370;4.832;2023-07-31T01:38:41;54.82;51.33;58.02;;
69668;Laerm;66534;52.370;4.832;2023-07-31T01:39:11;54.11;51.32;57.05;;
69668;Laerm;66534;52.370;4.832;2023-07-31T01:39:41;53.02;50.36;57.51;;
69668;Laerm;66534;52.370;4.832;2023-07-31T01:40:12;54.36;51.33;57.62;;
69668;Laerm;66534;52.370;4.832;2023-07-31T01:40:42;50.39;46.73;56.33;;
69668;Laerm;66534;52.370;4.832;2023-07-31T01:41:13;50.10;46.40;58.24;;
69668;Laerm;66534;52.370;4.832;2023-07-31T01:41:43;54.09;49.07;62.99;;
69668;Laerm;66534;52.370;4.832;2023-07-31T01:42:14;55.20;50.84;57.57;;
69668;Laerm;66534;52.370;4.832;2023-07-31T01:42:44;53.45;49.31;64.09;;
69668;Laerm;66534;52.370;4.832;2023-07-31T01:43:15;51.29;47.45;55.11;;
69668;Laerm;66534;52.370;4.832;2023-07-31T01:43:46;50.49;46.01;55.24;;
69668;Laerm;66534;52.370;4.832;2023-07-31T01:44:16;48.86;46.87;57.15;;
69668;Laerm;66534;52.370;4.832;2023-07-31T01:44:47;50.23;47.41;54.12;;
69668;Laerm;66534;52.370;4.832;2023-07-31T01:45:17;52.28;49.57;54.87;;
69668;Laerm;66534;52.370;4.832;2023-07-31T01:45:48;50.02;46.54;52.91;;
69668;Laerm;66534;52.370;4.832;2023-07-31T01:46:18;48.60;44.74;54.04;;
69668;Laerm;66534;52.370;4.832;2023-07-31T01:46:49;50.86;46.58;56.20;;
69668;Laerm;66534;52.370;4.832;2023-07-31T01:47:19;55.91;51.70;59.93;;
69668;Laerm;66534;52.370;4.832;2023-07-31T01:47:50;52.36;49.38;56.82;;
69668;Laerm;66534;52.370;4.832;2023-07-31T01:48:20;52.18;49.20;55.27;;
69668;Laerm;66534;52.370;4.832;2023-07-31T01:48:51;53.64;49.39;57.63;;
69668;Laerm;66534;52.370;4.832;2023-07-31T01:49:21;51.42;47.37;56.22;;
69668;Laerm;66534;52.370;4.832;2023-07-31T01:49:51;52.39;49.82;56.42;;
69668;Laerm;66534;52.370;4.832;2023-07-31T01:50:22;54.71;51.81;57.75;;
69668;Laerm;66534;52.370;4.832;2023-07-31T01:50:52;48.44;45.48;54.01;;
69668;Laerm;66534;52.370;4.832;2023-07-31T01:52:24;51.86;48.11;56.29;;
69668;Laerm;66534;52.370;4.832;2023-07-31T01:52:54;51.77;49.27;55.84;;
69668;Laerm;66534;52.370;4.832;2023-07-31T01:53:24;51.13;48.21;56.46;;
69668;Laerm;66534;52.370;4.832;2023-07-31T03:06:16;53.96;51.35;56.73;;
69668;Laerm;66534;52.370;4.832;2023-07-31T03:06:46;51.81;48.12;57.68;;
69668;Laerm;66534;52.370;4.832;2023-07-31T03:07:17;53.55;49.91;61.23;;
69668;Laerm;66534;52.370;4.832;2023-07-31T03:07:47;55.73;52.30;58.21;;
69668;Laerm;66534;52.370;4.832;2023-07-31T03:08:18;52.89;49.43;59.04;;
69668;Laerm;66534;52.370;4.832;2023-07-31T03:08:48;52.11;48.68;67.55;;
69668;Laerm;66534;52.370;4.832;2023-07-31T03:09:19;51.98;48.29;64.94;;
69668;Laerm;66534;52.370;4.832;2023-07-31T03:09:49;50.11;46.66;55.33;;
69668;Laerm;66534;52.370;4.832;2023-07-31T03:10:19;50.08;46.42;53.47;;
69668;Laerm;66534;52.370;4.832;2023-07-31T03:10:50;48.11;44.33;50.99;;
69668;Laerm;66534;52.370;4.832;2023-07-31T03:11:20;49.81;46.96;52.68;;
69668;Laerm;66534;52.370;4.832;2023-07-31T03:11:51;48.93;46.68;52.72;;
69668;Laerm;66534;52.370;4.832;2023-07-31T03:12:21;49.74;46.55;53.29;;
69668;Laerm;66534;52.370;4.832;2023-07-31T03:12:52;49.08;46.38;54.12;;
69668;Laerm;66534;52.370;4.832;2023-07-31T03:13:22;49.14;46.27;58.89;;
69668;Laerm;66534;52.370;4.832;2023-07-31T03:13:53;52.27;46.74;58.80;;
69668;Laerm;66534;52.370;4.832;2023-07-31T03:14:24;49.84;46.34;55.87;;
69668;Laerm;66534;52.370;4.832;2023-07-31T03:14:56;49.59;47.77;52.65;;
69668;Laerm;66534;52.370;4.832;2023-07-31T03:15:27;53.57;48.61;57.78;;
69668;Laerm;66534;52.370;4.832;2023-07-31T03:15:57;51.72;48.22;55.01;;
69668;Laerm;66534;52.370;4.832;2023-07-31T03:16:27;51.46;48.66;54.01;;
69668;Laerm;66534;52.370;4.832;2023-07-31T03:16:59;51.70;48.48;54.90;;
69668;Laerm;66534;52.370;4.832;2023-07-31T03:17:30;48.81;46.48;52.39;;
69668;Laerm;66534;52.370;4.832;2023-07-31T03:18:00;50.88;46.86;60.09;;
69668;Laerm;66534;52.370;4.832;2023-07-31T03:18:30;51.68;47.50;64.33;;
69668;Laerm;66534;52.370;4.832;2023-07-31T03:19:01;52.80;47.82;57.77;;
69668;Laerm;66534;52.370;4.832;2023-07-31T03:19:32;54.16;49.71;56.84;;
69668;Laerm;66534;52.370;4.832;2023-07-31T03:20:03;51.83;48.60;54.47;;
69668;Laerm;66534;52.370;4.832;2023-07-31T03:20:34;54.93;51.23;58.38;;
69668;Laerm;66534;52.370;4.832;2023-07-31T03:21:04;54.18;50.14;57.65;;
69668;Laerm;66534;52.370;4.832;2023-07-31T03:21:35;51.60;48.26;54.80;;
69668;Laerm;66534;52.370;4.832;2023-07-31T03:22:05;52.11;49.41;55.81;;
69668;Laerm;66534;52.370;4.832;2023-07-31T03:22:36;53.09;50.41;56.43;;
69668;Laerm;66534;52.370;4.832;2023-07-31T03:23:06;53.51;49.81;58.34;;
69668;Laerm;66534;52.370;4.832;2023-07-31T03:23:36;50.86;48.43;62.40;;
69668;Laerm;66534;52.370;4.832;2023-07-31T03:24:07;51.85;49.62;53.92;;
69668;Laerm;66534;52.370;4.832;2023-07-31T03:24:37;50.89;48.61;53.24;;
69668;Laerm;66534;52.370;4.832;2023-07-31T03:25:08;52.86;50.26;56.89;;
69668;Laerm;66534;52.370;4.832;2023-07-31T03:25:55;53.36;48.66;57.96;;
69668;Laerm;66534;52.370;4.832;2023-07-31T03:26:26;50.77;46.21;62.01;;
69668;Laerm;66534;52.370;4.832;2023-07-31T03:26:56;50.44;48.76;53.30;;
69668;Laerm;66534;52.370;4.832;2023-07-31T03:27:27;51.21;48.04;59.12;;
69668;Laerm;66534;52.370;4.832;2023-07-31T03:27:57;50.02;47.82;52.98;;
69668;Laerm;66534;52.370;4.832;2023-07-31T03:28:28;49.56;46.47;53.49;;
69668;Laerm;66534;52.370;4.832;2023-07-31T03:28:58;51.52;45.38;56.69;;
69668;Laerm;66534;52.370;4.832;2023-07-31T03:29:29;52.04;48.41;55.01;;
69668;Laerm;66534;52.370;4.832;2023-07-31T03:29:59;51.93;49.16;55.67;;
69668;Laerm;66534;52.370;4.832;2023-07-31T03:30:31;53.40;49.97;55.50;;
69668;Laerm;66534;52.370;4.832;2023-07-31T03:31:02;52.14;49.21;54.67;;
69668;Laerm;66534;52.370;4.832;2023-07-31T03:31:32;49.77;47.73;51.78;;
69668;Laerm;66534;52.370;4.832;2023-07-31T03:32:03;50.43;47.06;53.81;;
69668;Laerm;66534;52.370;4.832;2023-07-31T03:32:34;51.30;47.48;54.73;;
69668;Laerm;66534;52.370;4.832;2023-07-31T03:33:04;51.67;48.91;53.58;;
69668;Laerm;66534;52.370;4.832;2023-07-31T03:33:35;55.51;50.21;58.97;;
69668;Laerm;66534;52.370;4.832;2023-07-31T03:34:05;52.63;49.22;54.99;;
69668;Laerm;66534;52.370;4.832;2023-07-31T03:34:36;48.24;46.02;55.30;;
69668;Laerm;66534;52.370;4.832;2023-07-31T03:35:06;55.89;46.64;60.18;;
69668;Laerm;66534;52.370;4.832;2023-07-31T03:35:37;56.12;49.33;60.61;;
69668;Laerm;66534;52.370;4.832;2023-07-31T03:36:07;52.50;49.93;55.54;;
69668;Laerm;66534;52.370;4.832;2023-07-31T03:36:38;53.31;50.64;56.85;;
69668;Laerm;66534;52.370;4.832;2023-07-31T03:37:08;53.80;50.00;57.32;;
69668;Laerm;66534;52.370;4.832;2023-07-31T03:37:39;54.72;51.92;65.87;;
69668;Laerm;66534;52.370;4.832;2023-07-31T03:38:10;54.89;49.67;60.71;;
69668;Laerm;66534;52.370;4.832;2023-07-31T03:38:40;50.46;47.10;53.90;;
69668;Laerm;66534;52.370;4.832;2023-07-31T03:39:10;49.59;47.26;51.52;;
69668;Laerm;66534;52.370;4.832;2023-07-31T03:39:41;53.23;49.42;55.72;;
69668;Laerm;66534;52.370;4.832;2023-07-31T03:40:11;54.91;50.43;59.55;;
69668;Laerm;66534;52.370;4.832;2023-07-31T03:40:42;54.32;49.84;59.04;;
69668;Laerm;66534;52.370;4.832;2023-07-31T03:41:12;51.74;49.66;57.03;;
69668;Laerm;66534;52.370;4.832;2023-07-31T03:41:43;51.08;48.81;56.24;;
69668;Laerm;66534;52.370;4.832;2023-07-31T03:42:13;52.06;49.33;56.53;;
69668;Laerm;66534;52.370;4.832;2023-07-31T03:42:43;51.00;48.94;54.14;;
69668;Laerm;66534;52.370;4.832;2023-07-31T03:43:15;53.26;50.31;55.99;;
69668;Laerm;66534;52.370;4.832;2023-07-31T03:43:48;51.71;49.26;55.88;;
69668;Laerm;66534;52.370;4.832;2023-07-31T03:44:19;50.52;46.83;55.38;;
69668;Laerm;66534;52.370;4.832;2023-07-31T03:44:50;49.22;46.29;53.46;;
69668;Laerm;66534;52.370;4.832;2023-07-31T03:45:20;51.14;48.61;53.65;;
69668;Laerm;66534;52.370;4.832;2023-07-31T03:45:51;51.64;48.56;57.12;;
69668;Laerm;66534;52.370;4.832;2023-07-31T03:46:22;50.77;47.95;64.21;;
69668;Laerm;66534;52.370;4.832;2023-07-31T03:46:53;52.16;49.44;59.88;;
69668;Laerm;66534;52.370;4.832;2023-07-31T03:47:23;54.59;45.99;74.15;;
69668;Laerm;66534;52.370;4.832;2023-07-31T03:47:54;52.18;47.65;65.46;;
69668;Laerm;66534;52.370;4.832;2023-07-31T03:48:24;49.60;46.22;61.80;;
69668;Laerm;66534;52.370;4.832;2023-07-31T03:48:55;51.66;46.65;64.65;;
69668;Laerm;66534;52.370;4.832;2023-07-31T03:49:25;50.26;45.95;54.12;;
69668;Laerm;66534;52.370;4.832;2023-07-31T03:49:56;50.58;47.63;54.41;;
69668;Laerm;66534;52.370;4.832;2023-07-31T03:50:26;51.73;47.20;69.01;;
69668;Laerm;66534;52.370;4.832;2023-07-31T03:50:57;51.01;47.84;57.82;;
69668;Laerm;66534;52.370;4.832;2023-07-31T03:51:27;52.14;50.01;54.75;;
69668;Laerm;66534;52.370;4.832;2023-07-31T03:51:58;53.85;51.52;56.19;;
69668;Laerm;66534;52.370;4.832;2023-07-31T03:52:28;54.13;47.14;78.25;;
69668;Laerm;66534;52.370;4.832;2023-07-31T03:52:58;48.83;46.07;52.74;;
69668;Laerm;66534;52.370;4.832;2023-07-31T03:53:29;54.32;50.83;56.37;;
69668;Laerm;66534;52.370;4.832;2023-07-31T03:53:59;53.45;50.34;56.88;;
69668;Laerm;66534;52.370;4.832;2023-07-31T03:54:30;50.41;48.04;52.97;;
69668;Laerm;66534;52.370;4.832;2023-07-31T03:55:00;52.16;48.24;57.23;;
69668;Laerm;66534;52.370;4.832;2023-07-31T03:55:31;54.24;51.36;57.04;;
69668;Laerm;66534;52.370;4.832;2023-07-31T03:56:01;53.14;48.53;60.70;;
69668;Laerm;66534;52.370;4.832;2023-07-31T03:56:32;52.91;48.44;60.86;;
69668;Laerm;66534;52.370;4.832;2023-07-31T03:57:02;51.68;48.52;57.03;;
69668;Laerm;66534;52.370;4.832;2023-07-31T03:57:33;49.51;46.51;65.32;;
69668;Laerm;66534;52.370;4.832;2023-07-31T03:58:03;47.81;44.84;52.84;;
69668;Laerm;66534;52.370;4.832;2023-07-31T03:58:34;51.21;47.11;65.73;;
69668;Laerm;66534;52.370;4.832;2023-07-31T03:59:05;51.76;46.88;71.20;;
69668;Laerm;66534;52.370;4.832;2023-07-31T03:59:35;52.28;50.02;67.58;;
69668;Laerm;66534;52.370;4.832;2023-07-31T04:00:06;51.49;48.42;65.93;;
69668;Laerm;66534;52.370;4.832;2023-07-31T04:00:37;50.16;47.18;68.33;;
69668;Laerm;66534;52.370;4.832;2023-07-31T04:01:08;49.11;46.55;59.83;;
69668;Laerm;66534;52.370;4.832;2023-07-31T04:01:38;48.53;46.39;61.40;;
69668;Laerm;66534;52.370;4.832;2023-07-31T04:02:09;50.34;46.75;61.00;;
69668;Laerm;66534;52.370;4.832;2023-07-31T04:02:39;51.12;47.16;54.30;;
69668;Laerm;66534;52.370;4.832;2023-07-31T04:03:10;49.50;46.68;54.71;;
69668;Laerm;66534;52.370;4.832;2023-07-31T04:03:40;51.47;47.39;56.62;;
69668;Laerm;66534;52.370;4.832;2023-07-31T04:04:10;52.78;50.07;62.30;;
69668;Laerm;66534;52.370;4.832;2023-07-31T04:04:41;51.87;49.46;61.92;;
69668;Laerm;66534;52.370;4.832;2023-07-31T04:05:11;51.88;48.61;67.29;;
69668;Laerm;66534;52.370;4.832;2023-07-31T04:05:42;52.99;49.78;56.23;;
69668;Laerm;66534;52.370;4.832;2023-07-31T04:06:12;52.11;49.45;55.20;;
69668;Laerm;66534;52.370;4.832;2023-07-31T04:06:42;49.68;46.36;52.20;;
69668;Laerm;66534;52.370;4.832;2023-07-31T04:07:13;48.25;46.62;53.17;;
69668;Laerm;66534;52.370;4.832;2023-07-31T04:07:43;49.80;47.67;55.78;;
69668;Laerm;66534;52.370;4.832;2023-07-31T04:08:14;53.82;50.02;63.02;;
69668;Laerm;66534;52.370;4.832;2023-07-31T04:08:44;55.86;52.15;61.43;;
69668;Laerm;66534;52.370;4.832;2023-07-31T04:09:15;56.20;53.01;58.62;;
69668;Laerm;66534;52.370;4.832;2023-07-31T04:09:45;53.69;50.20;57.42;;
69668;Laerm;66534;52.370;4.832;2023-07-31T04:10:16;55.99;50.18;59.41;;
69668;Laerm;66534;52.370;4.832;2023-07-31T04:10:46;53.81;49.88;60.02;;
69668;Laerm;66534;52.370;4.832;2023-07-31T04:11:17;55.39;50.33;62.99;;
69668;Laerm;66534;52.370;4.832;2023-07-31T04:11:47;54.57;50.15;62.57;;
69668;Laerm;66534;52.370;4.832;2023-07-31T04:12:18;51.07;48.06;60.39;;
69668;Laerm;66534;52.370;4.832;2023-07-31T04:12:48;50.43;47.32;65.27;;
69668;Laerm;66534;52.370;4.832;2023-07-31T04:13:19;51.17;46.97;55.03;;
69668;Laerm;66534;52.370;4.832;2023-07-31T04:13:49;50.61;47.41;53.36;;
69668;Laerm;66534;52.370;4.832;2023-07-31T04:14:20;50.32;45.79;54.97;;
69668;Laerm;66534;52.370;4.832;2023-07-31T04:14:50;46.73;44.11;49.24;;
69668;Laerm;66534;52.370;4.832;2023-07-31T04:15:21;47.80;44.26;52.69;;
69668;Laerm;66534;52.370;4.832;2023-07-31T04:15:51;47.00;44.38;49.78;;
69668;Laerm;66534;52.370;4.832;2023-07-31T04:16:22;50.10;47.06;59.49;;
69668;Laerm;66534;52.370;4.832;2023-07-31T04:16:52;47.42;45.25;55.31;;
69668;Laerm;66534;52.370;4.832;2023-07-31T04:17:22;46.58;44.37;50.46;;
69668;Laerm;66534;52.370;4.832;2023-07-31T04:17:53;47.41;45.03;52.82;;
69668;Laerm;66534;52.370;4.832;2023-07-31T04:18:25;47.88;44.91;51.87;;
69668;Laerm;66534;52.370;4.832;2023-07-31T04:18:56;50.94;46.82;56.52;;
69668;Laerm;66534;52.370;4.832;2023-07-31T04:19:26;51.65;48.64;56.41;;
69668;Laerm;66534;52.370;4.832;2023-07-31T04:19:57;50.31;47.35;55.24;;
69668;Laerm;66534;52.370;4.832;2023-07-31T04:20:27;49.38;46.20;53.61;;
69668;Laerm;66534;52.370;4.832;2023-07-31T04:20:58;50.46;47.03;53.87;;
69668;Laerm;66534;52.370;4.832;2023-07-31T04:21:28;52.08;47.49;55.35;;
69668;Laerm;66534;52.370;4.832;2023-07-31T04:21:59;53.15;49.60;55.73;;
69668;Laerm;66534;52.370;4.832;2023-07-31T04:22:29;52.61;49.75;55.39;;
69668;Laerm;66534;52.370;4.832;2023-07-31T04:23:00;50.25;46.82;54.53;;
69668;Laerm;66534;52.370;4.832;2023-07-31T04:23:30;49.53;46.55;52.62;;
69668;Laerm;66534;52.370;4.832;2023-07-31T04:24:00;53.26;46.67;70.41;;
69668;Laerm;66534;52.370;4.832;2023-07-31T04:24:31;52.94;46.49;66.14;;
69668;Laerm;66534;52.370;4.832;2023-07-31T04:25:01;50.17;47.47;52.63;;
69668;Laerm;66534;52.370;4.832;2023-07-31T04:25:32;52.45;48.70;55.18;;
69668;Laerm;66534;52.370;4.832;2023-07-31T04:26:02;48.27;45.40;51.16;;
69668;Laerm;66534;52.370;4.832;2023-07-31T04:26:33;48.07;44.70;55.23;;
69668;Laerm;66534;52.370;4.832;2023-07-31T04:27:03;49.62;44.35;58.91;;
69668;Laerm;66534;52.370;4.832;2023-07-31T04:27:34;48.58;45.00;58.69;;
69668;Laerm;66534;52.370;4.832;2023-07-31T04:28:04;53.42;47.55;66.36;;
69668;Laerm;66534;52.370;4.832;2023-07-31T04:28:34;53.65;49.45;70.11;;
69668;Laerm;66534;52.370;4.832;2023-07-31T04:29:05;50.93;46.24;58.17;;
69668;Laerm;66534;52.370;4.832;2023-07-31T04:29:35;48.12;44.74;59.46;;
69668;Laerm;66534;52.370;4.832;2023-07-31T04:30:06;49.24;46.98;55.02;;
69668;Laerm;66534;52.370;4.832;2023-07-31T04:30:37;48.21;46.10;52.38;;
69668;Laerm;66534;52.370;4.832;2023-07-31T04:31:07;48.86;46.78;55.71;;
69668;Laerm;66534;52.370;4.832;2023-07-31T04:31:39;50.51;46.55;56.25;;
69668;Laerm;66534;52.370;4.832;2023-07-31T04:32:09;52.68;49.18;65.35;;
69668;Laerm;66534;52.370;4.832;2023-07-31T04:32:39;51.24;49.07;56.13;;
69668;Laerm;66534;52.370;4.832;2023-07-31T04:33:10;53.92;48.71;60.80;;
69668;Laerm;66534;52.370;4.832;2023-07-31T04:33:40;56.86;52.61;62.31;;
69668;Laerm;66534;52.370;4.832;2023-07-31T04:34:11;52.33;49.62;55.12;;
69668;Laerm;66534;52.370;4.832;2023-07-31T04:34:44;58.27;52.58;61.91;;
69668;Laerm;66534;52.370;4.832;2023-07-31T04:35:14;57.40;53.61;62.12;;
69668;Laerm;66534;52.370;4.832;2023-07-31T04:35:51;57.74;51.41;62.05;;
69668;Laerm;66534;52.370;4.832;2023-07-31T04:36:22;53.82;51.12;57.81;;
69668;Laerm;66534;52.370;4.832;2023-07-31T04:36:53;55.00;50.68;78.57;;
69668;Laerm;66534;52.370;4.832;2023-07-31T04:37:23;52.19;47.94;61.94;;
69668;Laerm;66534;52.370;4.832;2023-07-31T04:37:53;49.75;47.12;52.39;;
69668;Laerm;66534;52.370;4.832;2023-07-31T04:38:24;54.10;49.26;57.64;;
69668;Laerm;66534;52.370;4.832;2023-07-31T04:38:54;54.64;49.11;60.32;;
69668;Laerm;66534;52.370;4.832;2023-07-31T04:39:25;52.66;50.65;56.85;;
69668;Laerm;66534;52.370;4.832;2023-07-31T04:39:55;52.81;49.70;69.79;;
69668;Laerm;66534;52.370;4.832;2023-07-31T04:40:26;53.51;49.92;61.53;;
69668;Laerm;66534;52.370;4.832;2023-07-31T04:40:56;52.32;48.07;62.32;;
69668;Laerm;66534;52.370;4.832;2023-07-31T04:41:26;48.37;45.44;51.51;;
69668;Laerm;66534;52.370;4.832;2023-07-31T04:41:58;51.10;46.94;56.15;;
69668;Laerm;66534;52.370;4.832;2023-07-31T04:42:28;50.79;47.58;62.51;;
69668;Laerm;66534;52.370;4.832;2023-07-31T04:42:58;52.59;47.76;73.99;;
69668;Laerm;66534;52.370;4.832;2023-07-31T04:43:29;47.19;44.80;54.62;;
69668;Laerm;66534;52.370;4.832;2023-07-31T04:43:59;48.80;46.76;51.86;;
69668;Laerm;66534;52.370;4.832;2023-07-31T04:44:30;49.42;46.30;66.34;;
69668;Laerm;66534;52.370;4.832;2023-07-31T04:45:00;48.34;45.28;57.01;;
69668;Laerm;66534;52.370;4.832;2023-07-31T04:45:31;50.47;46.58;59.31;;
69668;Laerm;66534;52.370;4.832;2023-07-31T04:46:01;53.38;46.61;72.82;;
69668;Laerm;66534;52.370;4.832;2023-07-31T04:46:31;51.29;47.50;64.40;;
69668;Laerm;66534;52.370;4.832;2023-07-31T04:47:02;51.03;49.18;58.37;;
69668;Laerm;66534;52.370;4.832;2023-07-31T04:47:32;50.20;48.26;55.88;;
69668;Laerm;66534;52.370;4.832;2023-07-31T04:48:03;51.72;48.65;57.26;;
69668;Laerm;66534;52.370;4.832;2023-07-31T04:48:33;51.05;47.34;58.04;;
69668;Laerm;66534;52.370;4.832;2023-07-31T04:49:04;51.47;47.55;58.51;;
69668;Laerm;66534;52.370;4.832;2023-07-31T04:49:34;54.36;48.83;58.97;;
69668;Laerm;66534;52.370;4.832;2023-07-31T04:50:05;50.63;48.34;59.35;;
69668;Laerm;66534;52.370;4.832;2023-07-31T04:50:37;48.89;45.68;54.95;;